Time;durP1;ratioP1;P1;durP2;ratioP2;P2;SDS_P1;SDS_P2;PMS_P1;PMS_P2;Temp;Humidity;BMP_temperature;BMP_pressure;BME280_temperature;BME280_humidity;BME280_pressure;Samples;Min_cycle;Max_cycle;Signal;HPM_P1;HPM_P2
2022/09/29 00:00:49;;;;;;;;;3.00;3.00;;;;;14.22;50.00;99579.84;5050413;28;45479;-56
2022/09/29 00:03:15;;;;;;;;;6.25;4.50;;;;;14.24;50.12;99581.47;5063163;28;45456;-55
2022/09/29 00:05:47;;;;;;;;;4.00;3.50;;;;;14.24;50.36;99576.19;5045048;28;46186;-57
2022/09/29 00:08:12;;;;;;;;;6.00;5.50;;;;;14.21;50.19;99578.13;5062885;28;45369;-56
2022/09/29 00:10:40;;;;;;;;;9.75;8.75;;;;;14.18;50.12;99581.75;5045009;28;45261;-54
2022/09/29 00:13:06;;;;;;;;;8.00;8.00;;;;;14.18;50.36;99576.47;5063032;28;45272;-55
2022/09/29 00:15:31;;;;;;;;;13.00;10.25;;;;;14.18;50.42;99580.91;5062860;28;45353;-56
2022/09/29 00:17:56;;;;;;;;;7.50;7.00;;;;;14.17;50.14;99577.41;5063068;28;45301;-55
2022/09/29 00:20:22;;;;;;;;;7.00;6.00;;;;;14.17;50.83;99576.56;5063074;28;45304;-56
2022/09/29 00:22:50;;;;;;;;;8.00;8.00;;;;;14.15;50.79;99566.06;5061278;28;45351;-57
2022/09/29 00:25:16;;;;;;;;;9.50;9.00;;;;;14.16;50.54;99574.84;5042888;28;45213;-57
2022/09/29 00:27:42;;;;;;;;;7.25;5.50;;;;;14.13;50.46;99573.19;5042299;28;45254;-56
2022/09/29 00:30:07;;;;;;;;;10.75;8.00;;;;;14.13;50.81;99567.91;5042366;28;45295;-56
2022/09/29 00:32:33;;;;;;;;;6.00;6.00;;;;;14.12;50.97;99568.84;5042928;28;45316;-56
2022/09/29 00:34:58;;;;;;;;;7.25;5.75;;;;;14.10;50.79;99565.41;5017275;28;45421;-56
2022/09/29 00:37:23;;;;;;;;;7.00;7.00;;;;;14.08;50.89;99564.63;5047129;28;45198;-56
2022/09/29 00:39:49;;;;;;;;;5.50;5.50;;;;;14.07;50.98;99576.13;5042305;28;45175;-56
2022/09/29 00:42:18;;;;;;;;;8.50;7.50;;;;;14.04;50.70;99565.72;5042424;28;45398;-56
2022/09/29 00:44:57;;;;;;;;;5.50;5.50;;;;;14.01;50.80;99558.78;5042333;28;45313;-56
2022/09/29 00:47:24;;;;;;;;;8.00;7.00;;;;;13.98;50.74;99556.28;5042167;28;46325;-57
2022/09/29 00:50:02;;;;;;;;;7.25;7.00;;;;;13.97;50.98;99555.44;5024486;28;45418;-56
2022/09/29 00:52:34;;;;;;;;;10.25;8.00;;;;;13.94;50.59;99555.56;5042330;28;45280;-56
2022/09/29 00:55:18;;;;;;;;;5.00;5.00;;;;;13.92;50.83;99553.94;5042405;28;45307;-56
2022/09/29 00:57:50;;;;;;;;;9.00;8.50;;;;;13.90;51.11;99548.72;5033314;28;47492;-57
2022/09/29 01:00:16;;;;;;;;;10.25;9.25;;;;;13.90;50.98;99550.50;5062015;28;45174;-56
2022/09/29 01:02:47;;;;;;;;;11.25;8.50;;;;;13.88;51.20;99545.28;5061964;28;45318;-56
2022/09/29 01:05:20;;;;;;;;;5.75;4.00;;;;;13.86;51.45;99547.16;5062391;28;45460;-55
2022/09/29 01:07:45;;;;;;;;;8.00;6.00;;;;;13.86;50.99;99551.56;5062052;28;46302;-56
2022/09/29 01:10:15;;;;;;;;;8.50;7.50;;;;;13.84;51.32;99550.81;5062025;28;45289;-56
2022/09/29 01:12:44;;;;;;;;;7.00;7.00;;;;;13.82;50.96;99546.44;5062241;28;45177;-56
2022/09/29 01:15:10;;;;;;;;;9.00;7.00;;;;;13.81;51.43;99544.72;5044050;28;45258;-56
2022/09/29 01:17:36;;;;;;;;;8.75;7.00;;;;;13.80;51.25;99547.44;5062008;28;46397;-56
2022/09/29 01:20:11;;;;;;;;;11.25;7.50;;;;;13.80;51.43;99547.44;5061941;28;45387;-56
2022/09/29 01:23:21;;;;;;;;;7.75;7.00;;;;;13.76;51.26;99536.19;5062045;28;45418;-56
2022/09/29 01:26:17;;;;;;;;;8.50;6.75;;;;;13.73;51.41;99538.94;4965168;28;45304;-56
2022/09/29 01:29:00;;;;;;;;;7.50;7.50;;;;;13.72;51.22;99534.63;5061099;28;45335;-56
2022/09/29 01:31:43;;;;;;;;;9.50;8.00;;;;;13.71;51.61;99540.81;5061632;28;45320;-54
2022/09/29 01:34:39;;;;;;;;;7.75;7.25;;;;;13.69;51.53;99528.63;5043727;28;45263;-56
2022/09/29 01:37:20;;;;;;;;;7.00;7.00;;;;;13.68;51.37;99532.19;5061876;28;45390;-56
2022/09/29 01:39:51;;;;;;;;;5.75;5.00;;;;;13.68;51.40;99529.53;5043559;28;48231;-56
2022/09/29 01:42:22;;;;;;;;;7.00;6.25;;;;;13.65;51.35;99520.81;5061412;28;45431;-56
2022/09/29 01:45:01;;;;;;;;;6.25;6.00;;;;;13.66;51.36;99524.34;5044095;28;45523;-55
2022/09/29 01:47:36;;;;;;;;;5.75;5.75;;;;;13.66;51.63;99529.63;5061517;28;45257;-56
2022/09/29 01:50:16;;;;;;;;;8.00;5.00;;;;;13.63;51.67;99530.63;5061491;28;45435;-56
2022/09/29 01:52:47;;;;;;;;;6.75;6.00;;;;;13.65;51.39;99534.03;5061562;28;45355;-56
2022/09/29 01:55:17;;;;;;;;;5.25;5.25;;;;;13.65;51.63;99531.38;5061509;28;45338;-56
2022/09/29 01:57:56;;;;;;;;;6.00;5.00;;;;;13.65;51.95;99534.03;5051771;28;45435;-56
2022/09/29 02:00:22;;;;;;;;;5.75;5.75;;;;;13.65;51.73;99534.03;5044160;28;45604;-56
2022/09/29 02:03:02;;;;;;;;;7.25;5.75;;;;;13.67;51.76;99533.09;5061361;28;45244;-56
2022/09/29 02:05:40;;;;;;;;;8.00;7.50;;;;;13.67;51.72;99536.59;5043244;28;45506;-56
2022/09/29 02:08:20;;;;;;;;;7.25;6.75;;;;;13.65;51.69;99539.31;5061026;28;45166;-57
2022/09/29 02:10:55;;;;;;;;;7.50;7.25;;;;;13.66;51.98;99534.91;5061191;28;46067;-56
2022/09/29 02:13:23;;;;;;;;;8.50;8.00;;;;;13.65;52.04;99541.94;5060923;28;45374;-56
2022/09/29 02:15:53;;;;;;;;;8.00;7.00;;;;;13.66;52.11;99537.53;5059990;28;45273;-56
2022/09/29 02:18:29;;;;;;;;;6.50;6.00;;;;;13.65;51.82;99538.47;5060954;28;45497;-57
2022/09/29 02:20:55;;;;;;;;;6.50;6.50;;;;;13.63;51.85;99537.66;5060854;28;46273;-56
2022/09/29 02:23:20;;;;;;;;;7.75;6.50;;;;;13.64;51.77;99542.84;5054858;28;45331;-57
2022/09/29 02:25:48;;;;;;;;;8.00;6.75;;;;;13.64;51.85;99539.38;5023076;28;45325;-56
2022/09/29 02:28:15;;;;;;;;;7.00;7.00;;;;;13.64;52.27;99542.84;5040485;28;45767;-56
2022/09/29 02:30:40;;;;;;;;;7.50;6.25;;;;;13.64;52.06;99536.75;5040393;28;46198;-55
2022/09/29 02:33:15;;;;;;;;;7.50;7.50;;;;;13.63;52.04;99535.03;5040725;28;45245;-56
2022/09/29 02:35:53;;;;;;;;;3.50;3.50;;;;;13.63;51.93;99535.91;5040916;28;45413;-56
2022/09/29 02:38:34;;;;;;;;;6.00;6.00;;;;;13.63;51.97;99529.75;5040604;28;45214;-56
2022/09/29 02:41:06;;;;;;;;;6.00;5.00;;;;;13.62;51.96;99526.25;5040451;28;45248;-57
2022/09/29 02:43:40;;;;;;;;;4.00;4.00;;;;;13.62;52.06;99533.31;5040456;28;45325;-56
2022/09/29 02:46:26;;;;;;;;;5.00;4.00;;;;;13.63;52.13;99532.38;5040381;28;45360;-56
2022/09/29 02:49:06;;;;;;;;;7.50;5.00;;;;;13.63;52.00;99524.47;5040343;28;45301;-56
2022/09/29 02:51:43;;;;;;;;;6.00;6.00;;;;;13.63;51.93;99535.91;5040393;28;46447;-56
2022/09/29 02:54:30;;;;;;;;;4.00;4.00;;;;;13.64;52.11;99527.03;5022360;28;45343;-56
2022/09/29 02:57:15;;;;;;;;;3.00;3.00;;;;;13.62;51.97;99528.91;5040400;28;45390;-56
2022/09/29 03:00:10;;;;;;;;;4.50;4.50;;;;;13.63;52.02;99530.63;5040032;28;45555;-56
2022/09/29 03:02:41;;;;;;;;;3.75;3.75;;;;;13.63;52.18;99532.38;5040106;28;45451;-56
2022/09/29 03:05:25;;;;;;;;;5.25;3.75;;;;;13.57;52.42;99522.97;5035756;28;45333;-56
2022/09/29 03:07:50;;;;;;;;;4.75;4.00;;;;;13.60;52.07;99530.75;5040354;28;45463;-56
2022/09/29 03:10:16;;;;;;;;;5.00;4.25;;;;;13.59;52.09;99533.47;5039860;28;45451;-56
2022/09/29 03:12:42;;;;;;;;;5.00;4.25;;;;;13.58;52.29;99527.31;5040115;28;47092;-56
2022/09/29 03:15:10;;;;;;;;;5.75;5.75;;;;;13.57;52.31;99525.63;5039794;28;45391;-56
2022/09/29 03:17:35;;;;;;;;;5.00;3.50;;;;;13.57;52.33;99530.03;5040276;28;45278;-56
2022/09/29 03:20:01;;;;;;;;;5.25;4.00;;;;;13.56;52.51;99523.03;5039939;28;45539;-56
2022/09/29 03:22:26;;;;;;;;;4.75;4.75;;;;;13.56;52.39;99523.91;5032241;28;47560;-56
2022/09/29 03:24:52;;;;;;;;;5.50;4.00;;;;;13.57;52.16;99520.34;5042244;28;45300;-55
2022/09/29 03:27:17;;;;;;;;;5.00;4.00;;;;;13.56;52.52;99521.25;5039690;28;45325;-56
2022/09/29 03:29:43;;;;;;;;;5.00;4.50;;;;;13.57;52.77;99522.09;5039680;28;45412;-56
2022/09/29 03:32:08;;;;;;;;;5.25;4.25;;;;;13.57;52.46;99516.81;5040049;28;45316;-56
2022/09/29 03:34:34;;;;;;;;;5.00;4.00;;;;;13.58;52.37;99518.53;5039785;28;45314;-55
2022/09/29 03:37:00;;;;;;;;;4.50;4.50;;;;;13.56;52.58;99513.34;5040108;28;45423;-54
2022/09/29 03:39:25;;;;;;;;;5.50;5.50;;;;;13.56;52.39;99515.97;5039604;28;45520;-56
2022/09/29 03:41:51;;;;;;;;;5.00;4.50;;;;;13.55;52.74;99511.63;5039732;28;46281;-56
2022/09/29 03:44:17;;;;;;;;;2.50;2.50;;;;;13.55;52.71;99510.78;5039423;28;45200;-55
2022/09/29 03:46:42;;;;;;;;;5.25;5.00;;;;;13.56;52.70;99515.97;5021825;28;45433;-55
2022/09/29 03:49:10;;;;;;;;;7.25;6.00;;;;;13.56;52.80;99518.63;5039654;28;45522;-53
2022/09/29 03:51:36;;;;;;;;;6.25;5.50;;;;;13.57;52.53;99515.06;5039743;28;46101;-55
2022/09/29 03:54:01;;;;;;;;;7.50;7.50;;;;;13.57;52.65;99519.47;5039394;28;45253;-55
2022/09/29 03:56:27;;;;;;;;;7.00;6.00;;;;;13.56;52.90;99518.63;5021891;28;45340;-55
2022/09/29 03:58:52;;;;;;;;;4.75;4.75;;;;;13.55;52.58;99511.63;5039141;28;45270;-54
2022/09/29 04:01:17;;;;;;;;;6.00;5.00;;;;;13.56;52.93;99523.03;5050747;28;46097;-56
2022/09/29 04:03:42;;;;;;;;;6.50;6.50;;;;;13.55;52.81;99518.69;5059540;28;45336;-56
2022/09/29 04:06:08;;;;;;;;;6.50;6.00;;;;;13.54;52.88;99523.09;5059796;28;45368;-56
2022/09/29 04:08:36;;;;;;;;;6.00;6.00;;;;;13.54;52.95;99525.75;5059189;28;45372;-56
2022/09/29 04:11:02;;;;;;;;;5.00;5.00;;;;;13.53;52.99;99520.53;5041372;28;46123;-56
2022/09/29 04:13:27;;;;;;;;;6.50;6.50;;;;;13.53;52.66;99529.28;5040931;28;45286;-56
2022/09/29 04:15:57;;;;;;;;;8.25;6.25;;;;;13.51;52.71;99517.97;5059517;28;45536;-56
2022/09/29 04:18:23;;;;;;;;;6.25;5.75;;;;;13.50;53.17;99516.25;5059338;28;45242;-58
2022/09/29 04:20:48;;;;;;;;;8.50;6.25;;;;;13.48;52.92;99518.09;5059220;28;46618;-56
2022/09/29 04:23:14;;;;;;;;;6.25;6.00;;;;;13.43;53.35;99515.69;5054531;28;45313;-55
2022/09/29 04:25:39;;;;;;;;;6.50;6.00;;;;;13.44;53.37;99524.44;5016431;28;45353;-55
2022/09/29 04:28:05;;;;;;;;;6.00;6.00;;;;;13.44;53.20;99525.28;5040891;28;45736;-57
2022/09/29 04:30:30;;;;;;;;;4.75;4.50;;;;;13.43;53.36;99520.09;5039048;28;45323;-56
2022/09/29 04:32:56;;;;;;;;;5.25;5.25;;;;;13.42;53.15;99527.16;5039122;28;45416;-56
2022/09/29 04:35:21;;;;;;;;;5.50;5.50;;;;;13.43;53.00;99528.00;5039543;28;45243;-53
2022/09/29 04:37:47;;;;;;;;;8.00;7.00;;;;;13.44;53.36;99532.38;5039554;28;45285;-55
2022/09/29 04:40:12;;;;;;;;;6.50;6.50;;;;;13.43;53.35;99536.81;5042041;28;58170;-57
2022/09/29 04:42:37;;;;;;;;;7.00;7.00;;;;;13.42;53.28;99532.44;5024586;28;45332;-55
2022/09/29 04:45:03;;;;;;;;;7.25;6.25;;;;;13.42;53.46;99532.44;5042536;28;45376;-54
2022/09/29 04:47:29;;;;;;;;;10.00;6.50;;;;;13.43;53.08;99539.44;5042300;28;45178;-54
2022/09/29 04:49:55;;;;;;;;;5.50;5.25;;;;;13.42;53.45;99543.00;5042293;28;47308;-55
2022/09/29 04:52:20;;;;;;;;;9.75;7.00;;;;;13.41;53.12;99535.13;5042185;28;45294;-54
2022/09/29 04:54:45;;;;;;;;;5.75;5.00;;;;;13.41;53.07;99537.78;5024553;28;45313;-56
2022/09/29 04:57:11;;;;;;;;;7.25;6.50;;;;;13.39;53.49;99542.28;5042128;28;45532;-56
2022/09/29 04:59:36;;;;;;;;;7.25;6.00;;;;;13.38;53.37;99540.56;5024253;28;46820;-55
2022/09/29 05:02:01;;;;;;;;;8.25;7.00;;;;;13.37;53.35;99538.81;5059251;28;45259;-56
2022/09/29 05:04:27;;;;;;;;;7.00;7.00;;;;;13.36;53.24;99545.88;5062128;28;45367;-56
2022/09/29 05:06:52;;;;;;;;;8.25;7.00;;;;;13.35;53.48;99549.44;5061992;28;45543;-56
2022/09/29 05:09:17;;;;;;;;;8.75;6.50;;;;;13.36;53.22;99550.28;5062114;28;45384;-55
2022/09/29 05:11:42;;;;;;;;;7.75;7.75;;;;;13.35;53.49;99541.53;5061884;28;47202;-56
2022/09/29 05:14:10;;;;;;;;;9.00;6.50;;;;;13.32;53.46;99539.88;5062011;28;45312;-56
2022/09/29 05:16:35;;;;;;;;;8.75;7.50;;;;;13.33;53.43;99543.34;5043840;28;46431;-55
2022/09/29 05:19:01;;;;;;;;;8.75;7.50;;;;;13.32;53.56;99544.31;5061816;28;46310;-54
2022/09/29 05:21:27;;;;;;;;;8.75;7.50;;;;;13.33;53.72;99546.88;5061855;28;45442;-54
2022/09/29 05:23:52;;;;;;;;;6.00;6.00;;;;;13.35;53.35;99549.44;5052891;28;45544;-56
2022/09/29 05:26:17;;;;;;;;;8.50;6.50;;;;;13.35;53.88;99545.97;5042075;28;45247;-53
2022/09/29 05:28:44;;;;;;;;;8.75;8.75;;;;;13.36;53.76;99552.91;5041562;28;45390;-56
2022/09/29 05:31:11;;;;;;;;;7.50;7.00;;;;;13.37;53.97;99549.38;5023612;28;45449;-56
2022/09/29 05:33:37;;;;;;;;;10.25;8.50;;;;;13.38;53.52;99556.38;5023824;28;45320;-56
2022/09/29 05:36:10;;;;;;;;;12.75;12.75;;;;;13.36;53.39;99547.63;5041425;28;45490;-55
2022/09/29 05:38:36;;;;;;;;;14.25;13.00;;;;;13.35;53.60;99551.22;5041513;28;45999;-55
2022/09/29 05:41:06;;;;;;;;;18.75;18.75;;;;;13.33;53.87;99551.28;5041166;28;45550;-56
2022/09/29 05:43:31;;;;;;;;;18.50;17.75;;;;;13.35;53.64;99553.88;5041662;28;45428;-54
2022/09/29 05:46:01;;;;;;;;;13.75;13.75;;;;;13.34;54.05;99545.09;5040919;28;45298;-55
2022/09/29 05:48:29;;;;;;;;;16.25;16.25;;;;;13.32;53.91;99545.16;5041034;28;45423;-55
2022/09/29 05:50:55;;;;;;;;;16.50;12.25;;;;;13.34;53.83;99550.34;5041172;28;45387;-54
2022/09/29 05:53:20;;;;;;;;;14.00;13.75;;;;;13.35;54.10;99543.31;5041488;28;45220;-56
2022/09/29 05:55:45;;;;;;;;;42.25;36.25;;;;;13.33;53.91;99552.16;5040983;28;48372;-55
2022/09/29 05:58:11;;;;;;;;;15.75;14.00;;;;;13.33;53.72;99553.91;5040913;28;46622;-55
2022/09/29 06:00:36;;;;;;;;;14.75;14.75;;;;;13.34;53.74;99550.34;5046424;28;45397;-56
2022/09/29 06:03:02;;;;;;;;;13.00;11.50;;;;;13.33;53.94;99560.06;5061578;28;45282;-55
2022/09/29 06:05:28;;;;;;;;;11.75;10.25;;;;;13.35;54.36;99565.28;5061183;28;45582;-55
2022/09/29 06:07:54;;;;;;;;;12.75;9.75;;;;;13.33;54.25;99557.44;5060993;28;46202;-55
2022/09/29 06:10:20;;;;;;;;;10.75;10.75;;;;;13.35;53.85;99561.78;5061001;28;45261;-54
2022/09/29 06:12:45;;;;;;;;;11.25;11.00;;;;;13.34;53.90;99560.91;5061147;28;45415;-55
2022/09/29 06:15:11;;;;;;;;;11.00;10.00;;;;;13.34;53.93;99555.63;5060888;28;45312;-55
2022/09/29 06:17:37;;;;;;;;;11.75;11.00;;;;;13.36;53.91;99558.19;5060857;28;47414;-54
2022/09/29 06:20:04;;;;;;;;;9.25;8.25;;;;;13.35;54.27;99549.44;5060832;28;45394;-54
2022/09/29 06:22:30;;;;;;;;;13.00;11.25;;;;;13.34;53.99;99555.63;5060907;28;45368;-55
2022/09/29 06:24:55;;;;;;;;;11.25;10.25;;;;;13.34;53.92;99555.63;5041676;28;45521;-54
2022/09/29 06:27:21;;;;;;;;;11.50;11.00;;;;;13.34;54.10;99553.00;5040709;28;45305;-55
2022/09/29 06:29:46;;;;;;;;;11.75;9.75;;;;;13.36;54.05;99559.06;5040600;28;45333;-55
2022/09/29 06:32:11;;;;;;;;;4.50;4.50;;;;;13.35;54.15;99567.91;5041091;28;45551;-55
2022/09/29 06:37:33;;;;;;;;;10.75;10.75;;;;;13.36;54.11;99574.03;5040625;28;45194;-55
2022/09/29 06:37:34;;;;;;;;;10.75;10.25;;;;;13.33;54.14;99567.09;5040457;28;45877;-54
2022/09/29 06:40:01;;;;;;;;;13.75;10.25;;;;;13.29;54.57;99569.03;5040401;28;45218;-55
2022/09/29 06:42:26;;;;;;;;;10.50;10.00;;;;;13.28;54.54;99567.34;5040117;28;45349;-55
2022/09/29 06:44:53;;;;;;;;;12.50;10.75;;;;;13.29;54.31;99562.91;5040163;28;45468;-54
2022/09/29 06:47:20;;;;;;;;;10.25;9.50;;;;;13.28;54.12;99567.34;5022480;28;46242;-55
2022/09/29 06:49:45;;;;;;;;;14.50;11.00;;;;;13.30;54.47;99573.38;5040419;28;45431;-55
2022/09/29 06:52:11;;;;;;;;;11.75;10.50;;;;;13.27;54.42;99570.00;5040713;28;45247;-55
2022/09/29 06:54:36;;;;;;;;;10.00;10.00;;;;;13.28;54.55;99582.28;5022558;28;45267;-54
2022/09/29 06:57:01;;;;;;;;;15.00;13.75;;;;;13.29;54.71;99579.56;5021961;28;51223;-55
2022/09/29 06:59:27;;;;;;;;;14.50;11.00;;;;;13.27;54.64;99570.00;5039678;28;45182;-55
2022/09/29 07:01:52;;;;;;;;;12.00;12.00;;;;;13.30;54.56;99580.44;5039632;28;45428;-54
2022/09/29 07:04:19;;;;;;;;;10.75;10.25;;;;;13.32;54.67;99587.38;5022298;28;45270;-55
2022/09/29 07:06:44;;;;;;;;;14.50;14.50;;;;;13.35;54.90;99583.75;5021601;28;45415;-55
2022/09/29 07:09:14;;;;;;;;;11.75;11.50;;;;;13.34;54.61;99587.28;5022123;28;45265;-55
2022/09/29 07:11:40;;;;;;;;;16.00;12.50;;;;;13.35;54.63;99588.16;5040193;28;45344;-55
2022/09/29 07:14:06;;;;;;;;;13.25;13.25;;;;;13.32;54.83;99589.16;5039690;28;45530;-54
2022/09/29 07:16:31;;;;;;;;;12.50;9.50;;;;;13.31;55.05;99588.28;5039322;28;45403;-52
2022/09/29 07:18:57;;;;;;;;;12.25;11.50;;;;;13.33;54.71;99583.81;5039796;28;45225;-48
2022/09/29 07:21:22;;;;;;;;;16.50;15.75;;;;;13.35;54.61;99583.75;5041437;28;45261;-53
2022/09/29 07:23:48;;;;;;;;;21.75;18.00;;;;;13.37;54.89;99592.50;5050261;28;45154;-54
2022/09/29 07:26:15;;;;;;;;;13.50;13.50;;;;;13.40;54.57;99599.41;5050837;28;46577;-52
2022/09/29 07:28:40;;;;;;;;;12.00;12.00;;;;;13.43;54.92;99596.63;5064112;28;45518;-53
2022/09/29 07:31:09;;;;;;;;;17.25;14.25;;;;;13.47;55.05;99603.47;5042131;28;45474;-54
2022/09/29 07:33:34;;;;;;;;;12.50;11.00;;;;;13.49;54.83;99602.47;5038537;28;45388;-53
2022/09/29 07:36:00;;;;;;;;;14.50;11.75;;;;;13.47;54.72;99595.56;5038082;28;45357;-56
2022/09/29 07:38:29;;;;;;;;;14.25;14.25;;;;;13.51;54.71;99605.06;5039478;28;45379;-55
2022/09/29 07:40:58;;;;;;;;;11.75;10.75;;;;;13.48;55.22;99603.44;5037058;28;45648;-55
2022/09/29 07:43:24;;;;;;;;;14.25;12.00;;;;;13.48;55.24;99603.44;5038453;28;45469;-54
2022/09/29 07:45:50;;;;;;;;;15.75;13.25;;;;;13.51;54.74;99613.00;5039257;28;46048;-54
2022/09/29 07:48:16;;;;;;;;;14.75;14.75;;;;;13.53;54.93;99612.91;5039624;28;45435;-52
2022/09/29 07:50:43;;;;;;;;;15.50;14.25;;;;;13.53;55.20;99613.75;5039569;28;45251;-50
2022/09/29 07:53:09;;;;;;;;;16.75;15.50;;;;;13.58;54.78;99624.97;5048038;28;45442;-51
2022/09/29 07:55:35;;;;;;;;;14.50;13.75;;;;;13.58;54.98;99616.19;5049292;28;46978;-51
2022/09/29 07:58:00;;;;;;;;;16.75;15.25;;;;;13.60;55.08;99622.28;5030805;28;45408;-54
2022/09/29 08:00:26;;;;;;;;;15.75;13.25;;;;;13.65;54.89;99621.13;5043324;28;45386;-54
2022/09/29 08:02:52;;;;;;;;;14.00;14.00;;;;;13.64;54.77;99634.41;5037739;28;45320;-50
2022/09/29 08:05:18;;;;;;;;;13.50;13.50;;;;;13.64;55.22;99635.25;5039246;28;45418;-52
2022/09/29 08:07:43;;;;;;;;;20.50;17.50;;;;;13.71;55.11;99640.25;5039325;28;45297;-53
2022/09/29 08:10:08;;;;;;;;;20.50;20.00;;;;;13.75;54.76;99637.44;5046308;28;45244;-52
2022/09/29 08:12:34;;;;;;;;;17.00;16.75;;;;;13.79;55.13;99652.19;5039058;28;45349;-52
2022/09/29 08:14:59;;;;;;;;;21.00;20.75;;;;;13.79;55.16;99651.34;5045568;28;46011;-52
2022/09/29 08:17:24;;;;;;;;;24.25;22.50;;;;;13.84;55.12;99653.78;5042838;28;45296;-53
2022/09/29 08:19:50;;;;;;;;;31.75;31.00;;;;;13.90;54.92;99657.00;5042837;28;45349;-52
2022/09/29 08:22:15;;;;;;;;;19.50;16.50;;;;;13.97;54.89;99654.94;5051551;28;45547;-54
2022/09/29 08:24:41;;;;;;;;;19.25;17.50;;;;;14.01;54.74;99653.84;5046239;28;45216;-50
2022/09/29 08:27:07;;;;;;;;;19.50;18.50;;;;;14.03;54.83;99651.16;5055818;28;45261;-51
2022/09/29 08:29:32;;;;;;;;;21.25;19.25;;;;;14.03;54.84;99656.44;5049512;28;45301;-51
2022/09/29 08:31:58;;;;;;;;;18.25;17.25;;;;;14.03;54.71;99659.09;5042190;28;45230;-52
2022/09/29 08:34:24;;;;;;;;;23.50;20.25;;;;;14.08;55.33;99667.66;5040472;28;46088;-52
2022/09/29 08:36:50;;;;;;;;;22.75;20.25;;;;;14.13;54.52;99657.75;5042195;28;45368;-51
2022/09/29 08:39:18;;;;;;;;;20.25;20.25;;;;;14.14;54.76;99656.81;5042103;28;45309;-52
2022/09/29 08:42:01;;;;;;;;;22.75;19.00;;;;;14.18;55.09;99662.81;5042053;28;45444;-53
2022/09/29 08:44:38;;;;;;;;;16.75;16.75;;;;;14.21;55.00;99667.94;5023753;28;48309;-53
2022/09/29 08:47:12;;;;;;;;;19.00;18.00;;;;;14.26;54.55;99664.19;5041830;28;45360;-52
2022/09/29 08:49:47;;;;;;;;;16.50;15.00;;;;;14.28;54.53;99664.09;5042323;28;45408;-52
2022/09/29 08:52:18;;;;;;;;;10.50;9.75;;;;;14.33;54.85;99671.81;5042212;28;45385;-52
2022/09/29 08:54:47;;;;;;;;;14.75;13.00;;;;;14.37;54.86;99682.16;5042399;28;45526;-53
2022/09/29 08:57:17;;;;;;;;;13.50;12.50;;;;;14.39;54.58;99671.50;5042170;28;45383;-51
2022/09/29 08:59:49;;;;;;;;;12.25;11.75;;;;;14.46;54.66;99687.03;5042071;28;45390;-51
2022/09/29 09:02:46;;;;;;;;;16.50;13.75;;;;;14.54;54.85;99689.31;5061226;28;45423;-52
2022/09/29 09:05:23;;;;;;;;;11.00;11.00;;;;;14.61;54.89;99685.41;5062145;28;46419;-50
2022/09/29 09:08:01;;;;;;;;;15.50;14.50;;;;;14.73;54.34;99691.06;5066347;28;45324;-53
2022/09/29 09:10:38;;;;;;;;;15.75;13.75;;;;;14.79;54.75;99693.44;5060012;28;45495;-54
2022/09/29 09:13:06;;;;;;;;;15.25;12.25;;;;;14.88;54.10;99692.13;5047126;28;45308;-55
2022/09/29 09:15:38;;;;;;;;;12.00;12.00;;;;;14.95;54.29;99690.91;5037297;28;46305;-51
2022/09/29 09:18:25;;;;;;;;;14.50;14.25;;;;;15.01;54.08;99687.97;5044624;28;45422;-52
2022/09/29 09:20:57;;;;;;;;;19.25;15.75;;;;;15.04;53.82;99684.31;5048502;28;45461;-52
2022/09/29 09:23:25;;;;;;;;;16.75;14.25;;;;;15.04;54.14;99694.88;5053370;28;45466;-50
2022/09/29 09:25:59;;;;;;;;;13.25;12.25;;;;;15.07;53.91;99690.31;5062875;28;46119;-53
2022/09/29 09:28:41;;;;;;;;;12.00;11.50;;;;;15.08;53.64;99685.84;5049532;28;45289;-54
2022/09/29 09:31:16;;;;;;;;;8.25;8.25;;;;;15.11;53.92;99699.78;5049962;28;45380;-52
2022/09/29 09:34:10;;;;;;;;;14.25;11.25;;;;;15.18;54.01;99697.72;5056435;28;45264;-53
2022/09/29 09:36:52;;;;;;;;;10.50;10.00;;;;;15.22;53.72;99699.28;5034684;28;46052;-53
2022/09/29 09:39:29;;;;;;;;;11.75;11.75;;;;;15.31;53.70;99702.38;5047583;28;45396;-56
2022/09/29 09:41:58;;;;;;;;;12.75;11.75;;;;;15.38;53.74;99701.13;5064984;28;45509;-55
2022/09/29 09:44:33;;;;;;;;;12.00;10.50;;;;;15.41;53.88;99704.50;5045889;28;45570;-54
2022/09/29 09:47:26;;;;;;;;;10.50;9.50;;;;;15.52;53.46;99711.03;5047496;28;47068;-56
2022/09/29 09:50:05;;;;;;;;;12.75;10.50;;;;;15.57;53.38;99709.00;5052688;28;45396;-53
2022/09/29 09:52:42;;;;;;;;;8.00;8.00;;;;;15.63;53.33;99708.69;5039768;28;45289;-56
2022/09/29 09:55:20;;;;;;;;;13.25;12.50;;;;;15.79;53.62;99708.75;5036770;28;45340;-55
2022/09/29 09:57:54;;;;;;;;;14.50;12.00;;;;;15.90;53.49;99705.56;5041175;28;46313;-61
2022/09/29 10:00:51;;;;;;;;;12.00;10.75;;;;;16.05;53.65;99703.88;5053761;28;45382;-60
2022/09/29 10:03:17;;;;;;;;;12.75;12.75;;;;;16.20;53.52;99716.34;5052537;28;45642;-59
2022/09/29 10:05:47;;;;;;;;;11.00;11.00;;;;;16.31;53.58;99717.53;5060981;28;45347;-56
2022/09/29 10:08:18;;;;;;;;;11.50;11.50;;;;;16.37;53.23;99717.22;5070761;28;46207;-57
2022/09/29 10:10:43;;;;;;;;;13.00;11.75;;;;;16.48;53.24;99717.47;5060987;28;45312;-56
2022/09/29 10:13:12;;;;;;;;;11.75;10.00;;;;;16.50;52.89;99725.34;5060509;28;45229;-57
2022/09/29 10:15:50;;;;;;;;;12.75;11.00;;;;;16.55;53.17;99724.16;5054211;28;45218;-57
2022/09/29 10:18:28;;;;;;;;;10.25;9.00;;;;;16.55;52.65;99720.63;5062421;28;46406;-52
2022/09/29 10:20:53;;;;;;;;;7.25;6.00;;;;;16.54;52.79;99727.75;5060428;28;45344;-51
2022/09/29 10:23:26;;;;;;;;;8.00;6.50;;;;;16.51;52.78;99727.91;5055542;28;45391;-52
2022/09/29 10:26:16;;;;;;;;;9.25;8.50;;;;;16.49;52.71;99732.44;5066466;28;45400;-52
2022/09/29 10:28:46;;;;;;;;;15.75;14.50;;;;;16.47;52.64;99723.72;5067434;28;46481;-51
2022/09/29 10:31:26;;;;;;;;;12.00;11.50;;;;;16.45;52.32;99733.53;5056738;28;45576;-49
2022/09/29 10:33:56;;;;;;;;;8.25;8.25;;;;;16.43;52.44;99735.44;5067229;28;45408;-53
2022/09/29 10:36:22;;;;;;;;;9.25;9.00;;;;;16.40;52.29;99735.59;5055211;28;45510;-52
2022/09/29 10:38:50;;;;;;;;;10.50;8.25;;;;;16.38;51.98;99733.03;5041268;28;45540;-52
2022/09/29 10:41:18;;;;;;;;;11.75;8.25;;;;;16.37;52.03;99736.59;5056426;28;45387;-49
2022/09/29 10:43:46;;;;;;;;;12.25;11.75;;;;;16.35;52.21;99735.84;5055829;28;45232;-52
2022/09/29 10:46:35;;;;;;;;;13.00;10.00;;;;;16.30;51.97;99734.38;5057398;28;45594;-50
2022/09/29 10:49:18;;;;;;;;;12.00;11.25;;;;;16.28;52.15;99733.63;5046081;28;47028;-51
2022/09/29 10:52:02;;;;;;;;;11.50;11.00;;;;;16.27;51.81;99729.25;5047500;28;45441;-53
2022/09/29 10:54:33;;;;;;;;;17.25;15.50;;;;;16.25;52.06;99737.25;5057978;28;45327;-52
2022/09/29 10:57:10;;;;;;;;;12.25;9.75;;;;;16.27;52.22;99740.69;5055542;28;45228;-52
2022/09/29 10:59:48;;;;;;;;;10.25;10.25;;;;;16.28;52.20;99749.53;5057628;28;47067;-52
2022/09/29 11:02:24;;;;;;;;;10.50;10.00;;;;;16.29;51.96;99743.25;5041033;28;45399;-53
2022/09/29 11:04:52;;;;;;;;;9.75;8.75;;;;;16.31;52.17;99752.84;5060428;28;45630;-49
2022/09/29 11:07:18;;;;;;;;;14.75;12.00;;;;;16.30;52.55;99751.16;5038409;28;46156;-53
2022/09/29 11:09:44;;;;;;;;;12.00;10.00;;;;;16.33;52.01;99756.28;5054063;28;46289;-52
2022/09/29 11:12:24;;;;;;;;;11.25;9.75;;;;;16.36;51.89;99749.94;5060243;28;45429;-53
2022/09/29 11:14:49;;;;;;;;;9.75;9.50;;;;;16.36;51.97;99756.13;5039114;28;45325;-53
2022/09/29 11:17:26;;;;;;;;;10.50;9.00;;;;;16.37;52.29;99756.97;5058482;28;45292;-53
2022/09/29 11:19:56;;;;;;;;;12.00;11.00;;;;;16.36;52.18;99756.13;5059737;28;46035;-52
2022/09/29 11:22:48;;;;;;;;;13.25;12.50;;;;;16.40;52.50;99762.97;5057722;28;45381;-51
2022/09/29 11:25:32;;;;;;;;;15.25;13.25;;;;;16.41;52.67;99763.81;5062604;28;45470;-52
2022/09/29 11:28:10;;;;;;;;;22.00;18.00;;;;;16.39;52.21;99771.00;5052850;28;45276;-51
2022/09/29 11:31:10;;;;;;;;;15.25;13.25;;;;;16.37;52.42;99772.88;5059615;28;45354;-50
2022/09/29 11:34:05;;;;;;;;;20.00;19.50;;;;;16.33;52.22;99771.34;5036294;28;45542;-52
2022/09/29 11:36:52;;;;;;;;;16.75;15.25;;;;;16.30;52.64;99772.38;5043918;28;45351;-52
2022/09/29 11:39:20;;;;;;;;;22.75;17.25;;;;;16.28;52.65;99776.03;5059309;28;45433;-49
2022/09/29 11:41:58;;;;;;;;;18.00;16.00;;;;;16.25;52.29;99779.69;5055948;28;45454;-53